Time;durP1;ratioP1;P1;durP2;ratioP2;P2;SDS_P1;SDS_P2;PMS_P1;PMS_P2;Temp;Humidity;BMP_temperature;BMP_pressure;BME280_temperature;BME280_humidity;BME280_pressure;Samples;Min_cycle;Max_cycle;Signal;HPM_P1;HPM_P2
2023/07/04 00:01:47;;;;;;;77.00;72.68;;;;;;;22.64;39.17;100987.84;5098340;28;20032;-71
2023/07/04 00:04:16;;;;;;;75.05;71.20;;;;;;;22.62;39.30;100984.59;5097721;28;20136;-71
2023/07/04 00:06:42;;;;;;;75.55;71.30;;;;;;;22.60;39.46;100982.16;5097928;28;20063;-70
2023/07/04 00:09:07;;;;;;;75.00;71.03;;;;;;;22.59;39.45;100985.22;5097750;28;20032;-71
2023/07/04 00:11:34;;;;;;;78.80;75.07;;;;;;;22.56;39.18;100980.34;5097341;28;20032;-71
2023/07/04 00:13:59;;;;;;;75.20;71.53;;;;;;;22.54;39.39;100983.41;5097209;28;20085;-70
2023/07/04 00:16:25;;;;;;;76.85;72.80;;;;;;;22.53;39.61;100980.97;5097174;28;20036;-71
2023/07/04 00:18:50;;;;;;;77.20;73.20;;;;;;;22.51;39.24;100981.31;5097407;28;20031;-71
2023/07/04 00:21:17;;;;;;;78.20;74.03;;;;;;;22.47;39.64;100975.59;5097397;28;20083;-71
2023/07/04 00:23:47;;;;;;;77.45;73.35;;;;;;;22.47;39.77;100983.06;5095870;28;20529;-71
2023/07/04 00:26:18;;;;;;;76.07;72.22;;;;;;;22.45;39.84;100980.66;5097389;28;20028;-70
2023/07/04 00:28:44;;;;;;;78.03;73.57;;;;;;;22.42;39.28;100978.50;5096903;28;20032;-70
2023/07/04 00:31:14;;;;;;;76.03;71.93;;;;;;;22.41;39.59;100984.34;5095755;28;20039;-71
2023/07/04 00:33:39;;;;;;;76.55;72.10;;;;;;;22.39;39.49;100981.88;5097292;28;20185;-72
2023/07/04 00:36:11;;;;;;;75.47;71.78;;;;;;;22.38;39.83;100984.97;5097117;28;20479;-71
2023/07/04 00:38:38;;;;;;;76.68;72.78;;;;;;;22.36;39.90;100981.72;5096099;28;20055;-71
2023/07/04 00:41:09;;;;;;;74.50;70.60;;;;;;;22.35;39.38;100988.34;5096950;28;20028;-71
2023/07/04 00:44:09;;;;;;;75.15;71.35;;;;;;;22.33;39.46;100987.88;5097104;28;20460;-71
2023/07/04 00:46:39;;;;;;;71.10;67.45;;;;;;;22.31;39.55;100977.16;5097204;28;20029;-72
2023/07/04 00:49:18;;;;;;;76.85;72.90;;;;;;;22.27;39.43;100981.66;5096774;28;20081;-71
2023/07/04 00:51:56;;;;;;;;;;;;;;;22.25;39.91;100990.25;5097883;28;20036;-77
2023/07/04 00:54:24;;;;;;;68.57;65.20;;;;;;;22.21;39.55;100988.44;5096657;28;19915;-71
2023/07/04 00:56:54;;;;;;;75.13;71.30;;;;;;;22.20;39.97;100989.56;5096622;28;20111;-71
2023/07/04 00:59:20;;;;;;;74.07;70.38;;;;;;;22.18;40.14;100987.09;5096082;28;20036;-71
2023/07/04 01:01:46;;;;;;;73.88;70.55;;;;;;;22.17;39.93;100984.66;5096322;28;20024;-70
2023/07/04 01:04:12;;;;;;;73.82;69.82;;;;;;;22.16;40.04;100989.34;5096348;28;20122;-72
2023/07/04 01:06:55;;;;;;;73.90;69.80;;;;;;;22.14;39.73;100979.78;5095712;28;20083;-70
2023/07/04 01:09:23;;;;;;;73.95;70.00;;;;;;;22.11;40.14;100986.72;5094710;28;20107;-70
2023/07/04 01:11:50;;;;;;;73.50;69.95;;;;;;;22.10;40.12;100992.53;5095229;28;20043;-71
2023/07/04 01:14:24;;;;;;;74.63;71.03;;;;;;;22.08;39.64;100990.13;5094981;28;20063;-72
2023/07/04 01:16:50;;;;;;;73.18;69.55;;;;;;;22.07;40.21;100990.41;5094935;28;20455;-70
2023/07/04 01:19:24;;;;;;;75.93;71.13;;;;;;;22.06;39.82;100997.88;5094888;28;20032;-71
2023/07/04 01:22:04;;;;;;;74.45;70.78;;;;;;;22.04;40.04;100986.38;5094849;28;20024;-70
2023/07/04 01:24:43;;;;;;;72.32;68.60;;;;;;;22.02;40.18;100983.09;5094856;28;20020;-70
2023/07/04 01:27:09;;;;;;;74.18;69.93;;;;;;;21.99;40.36;100995.56;5095326;28;20032;-71
2023/07/04 01:29:36;;;;;;;75.35;71.05;;;;;;;21.98;39.96;100993.94;5094477;28;20043;-70
2023/07/04 01:32:03;;;;;;;78.22;73.70;;;;;;;21.97;40.43;100997.00;5094960;28;20028;-71
2023/07/04 01:34:28;;;;;;;73.30;69.15;;;;;;;21.95;40.32;100994.56;5094760;28;20085;-70
2023/07/04 01:36:54;;;;;;;71.32;67.60;;;;;;;21.94;40.40;100992.13;5093148;28;20127;-71
2023/07/04 01:39:19;;;;;;;70.63;67.18;;;;;;;21.92;40.47;100992.41;5094572;28;20114;-71
2023/07/04 01:41:45;;;;;;;76.05;71.57;;;;;;;21.91;40.08;100992.75;5094540;28;20036;-70
2023/07/04 01:44:12;;;;;;;75.88;71.30;;;;;;;21.90;40.56;100988.38;5094243;28;20074;-71
2023/07/04 01:46:38;;;;;;;73.15;69.18;;;;;;;21.87;40.49;100992.56;5094769;28;20099;-70
2023/07/04 01:49:04;;;;;;;74.70;71.00;;;;;;;21.87;40.26;100987.06;5094360;28;20119;-70
2023/07/04 01:51:38;;;;;;;74.10;70.47;;;;;;;21.86;40.49;100990.13;5093011;28;20036;-71
2023/07/04 01:54:05;;;;;;;72.80;69.03;;;;;;;21.84;40.18;100990.44;5094706;28;20036;-71
2023/07/04 01:56:32;;;;;;;70.57;66.85;;;;;;;21.82;40.61;100992.69;5092865;28;20028;-70
2023/07/04 01:58:58;;;;;;;71.95;68.13;;;;;;;21.81;40.27;100989.13;5094490;28;20039;-70
2023/07/04 02:01:24;;;;;;;71.03;67.43;;;;;;;21.81;40.48;100993.81;5094172;28;20028;-71
2023/07/04 02:03:51;;;;;;;71.28;67.20;;;;;;;21.79;40.72;100996.06;5092893;28;20536;-77
2023/07/04 02:06:16;;;;;;;69.10;65.70;;;;;;;21.78;40.40;101002.69;5055122;28;1123734;-70
2023/07/04 02:08:42;;;;;;;69.80;66.40;;;;;;;21.76;40.22;100996.69;5093798;28;20039;-71
2023/07/04 02:11:07;;;;;;;70.10;65.88;;;;;;;21.76;40.77;101002.19;5095277;28;20501;-70
2023/07/04 02:13:32;;;;;;;68.25;64.55;;;;;;;21.74;40.36;101001.69;5093659;28;20036;-70
2023/07/04 02:15:58;;;;;;;71.18;67.07;;;;;;;21.72;40.50;101001.19;5095698;28;20035;-70
2023/07/04 02:18:25;;;;;;;69.07;65.78;;;;;;;21.71;40.76;101005.88;5094593;28;20038;-69
2023/07/04 02:20:50;;;;;;;68.82;65.10;;;;;;;21.69;40.74;101010.06;5093897;28;20028;-71
2023/07/04 02:23:16;;;;;;;70.07;66.15;;;;;;;21.67;40.55;101002.13;5094241;28;20031;-72
2023/07/04 02:25:42;;;;;;;70.88;66.22;;;;;;;21.67;40.59;100990.31;5093309;28;20534;-69
2023/07/04 02:28:09;;;;;;;70.05;66.20;;;;;;;21.64;40.82;100991.75;5093110;28;20028;-68
2023/07/04 02:30:34;;;;;;;66.88;63.42;;;;;;;21.64;40.72;100989.00;5094649;28;20025;-69
2023/07/04 02:33:00;;;;;;;70.15;66.32;;;;;;;21.63;40.64;100981.06;5094528;28;20035;-69
2023/07/04 02:35:26;;;;;;;70.78;67.28;;;;;;;21.61;40.95;100984.94;5094593;28;20035;-68
2023/07/04 02:37:52;;;;;;;68.20;64.68;;;;;;;21.61;41.27;100992.38;5094284;28;20487;-69
2023/07/04 02:40:17;;;;;;;68.72;64.68;;;;;;;21.59;41.25;100981.66;5094088;28;20032;-71
2023/07/04 02:42:42;;;;;;;68.07;64.32;;;;;;;21.59;41.52;100986.34;5094454;28;20119;-69
2023/07/04 02:45:09;;;;;;;71.10;67.70;;;;;;;21.58;41.03;100993.00;5094302;28;20039;-68
2023/07/04 02:47:34;;;;;;;68.18;64.82;;;;;;;21.55;41.04;100980.69;5094278;28;20140;-68
2023/07/04 02:50:00;;;;;;;69.95;66.25;;;;;;;21.54;41.46;100987.28;5094800;28;20519;-68
2023/07/04 02:52:25;;;;;;;67.95;64.82;;;;;;;21.53;41.41;100982.13;5092633;28;20034;-69
2023/07/04 02:54:51;;;;;;;67.50;63.75;;;;;;;21.52;41.17;100981.31;5094809;28;20032;-69
2023/07/04 02:57:17;;;;;;;69.95;66.32;;;;;;;21.50;41.08;100980.81;5092808;28;20373;-69
2023/07/04 02:59:42;;;;;;;69.45;65.60;;;;;;;21.51;41.56;100978.88;5094500;28;20031;-69
2023/07/04 03:02:08;;;;;;;71.72;68.13;;;;;;;21.47;41.13;100984.19;5093944;28;20384;-74
2023/07/04 03:04:33;;;;;;;66.80;63.63;;;;;;;21.46;41.43;100985.28;5093704;28;20038;-70
2023/07/04 03:06:59;;;;;;;70.15;65.90;;;;;;;21.45;41.61;100980.13;5092539;28;20059;-70
2023/07/04 03:09:24;;;;;;;68.78;65.28;;;;;;;21.44;41.52;100990.28;5093994;28;20398;-69
2023/07/04 03:11:50;;;;;;;66.63;63.13;;;;;;;21.43;41.54;100993.34;5094129;28;20032;-70
2023/07/04 03:14:15;;;;;;;68.60;65.15;;;;;;;21.42;41.23;100997.19;5094115;28;20089;-70
2023/07/04 03:16:41;;;;;;;65.95;62.58;;;;;;;21.40;41.83;100992.03;5093850;28;20039;-70
2023/07/04 03:19:06;;;;;;;68.10;64.70;;;;;;;21.39;41.77;100996.72;5093744;28;20114;-69
2023/07/04 03:21:32;;;;;;;68.78;64.88;;;;;;;21.36;41.90;100996.47;5093969;28;20028;-70
2023/07/04 03:23:57;;;;;;;67.78;64.35;;;;;;;21.35;41.73;100994.88;5093657;28;20031;-77
2023/07/04 03:26:23;;;;;;;69.63;65.70;;;;;;;21.34;41.51;101010.53;5092895;28;20035;-73
2023/07/04 03:28:48;;;;;;;67.22;63.72;;;;;;;21.33;42.04;100999.84;5093734;28;20399;-70
2023/07/04 03:31:14;;;;;;;70.32;66.35;;;;;;;21.31;42.11;100999.34;5093427;28;20059;-70
2023/07/04 03:33:39;;;;;;;66.80;63.20;;;;;;;21.31;42.07;101007.59;5093609;28;20048;-68
2023/07/04 03:36:06;;;;;;;68.22;64.70;;;;;;;21.29;42.08;101002.41;5093744;28;20064;-69
2023/07/04 03:38:31;;;;;;;69.65;65.43;;;;;;;21.29;42.07;101009.81;5093833;28;20032;-71
2023/07/04 03:40:58;;;;;;;68.25;64.68;;;;;;;21.27;42.20;101006.56;5093558;28;20092;-69
2023/07/04 03:43:24;;;;;;;68.13;64.82;;;;;;;21.26;42.05;100996.72;5092186;28;20480;-69
2023/07/04 03:45:50;;;;;;;68.57;64.90;;;;;;;21.25;42.05;100992.34;5093226;28;20058;-68
2023/07/04 03:48:15;;;;;;;70.13;66.10;;;;;;;21.24;42.16;100990.72;5093698;28;20479;-69
2023/07/04 03:50:41;;;;;;;68.05;64.20;;;;;;;21.22;42.29;100999.28;5093161;28;20392;-69
2023/07/04 03:53:07;;;;;;;69.93;66.25;;;;;;;21.21;42.26;101007.81;5093388;28;20055;-69
2023/07/04 03:55:33;;;;;;;67.18;63.38;;;;;;;21.20;42.01;101012.50;5093489;28;20063;-68
2023/07/04 03:57:58;;;;;;;67.43;63.90;;;;;;;21.18;41.92;101010.03;5093973;28;20052;-68
2023/07/04 04:00:23;;;;;;;68.15;64.75;;;;;;;21.16;42.44;101015.03;5093323;28;20035;-69
2023/07/04 04:02:49;;;;;;;68.95;65.32;;;;;;;21.15;42.25;101001.63;5093130;28;20472;-68
2023/07/04 04:05:14;;;;;;;69.55;65.68;;;;;;;21.14;42.02;101000.81;5092871;28;20117;-69
2023/07/04 04:07:40;;;;;;;67.35;63.42;;;;;;;21.13;42.42;101001.91;5093821;28;20033;-69
2023/07/04 04:10:06;;;;;;;68.28;64.65;;;;;;;21.12;42.42;101002.25;5093286;28;20044;-69
2023/07/04 04:12:32;;;;;;;68.18;64.38;;;;;;;21.11;42.17;101008.84;5093606;28;20115;-69
2023/07/04 04:14:57;;;;;;;69.00;64.80;;;;;;;21.09;42.58;101009.16;5093746;28;20032;-68
2023/07/04 04:17:22;;;;;;;65.03;61.72;;;;;;;21.09;42.29;101002.84;5093176;28;20111;-69
2023/07/04 04:19:48;;;;;;;67.88;64.13;;;;;;;21.07;42.44;101005.91;5093139;28;20036;-70
2023/07/04 04:22:14;;;;;;;67.43;63.97;;;;;;;21.05;42.50;100999.91;5093359;28;20468;-69
2023/07/04 04:24:40;;;;;;;66.72;62.95;;;;;;;21.04;42.10;101013.94;5093109;28;20421;-69
2023/07/04 04:27:08;;;;;;;72.65;67.50;;;;;;;21.04;42.50;101013.94;5091890;28;20036;-72
2023/07/04 04:29:34;;;;;;;67.93;64.40;;;;;;;21.03;42.40;101017.81;5093093;28;20035;-68
2023/07/04 04:32:00;;;;;;;67.50;63.65;;;;;;;21.01;42.63;101017.28;5091903;28;20035;-68
2023/07/04 04:34:26;;;;;;;68.68;64.80;;;;;;;21.01;42.37;101017.28;5091840;28;20033;-68
2023/07/04 04:36:51;;;;;;;65.50;62.22;;;;;;;20.99;42.51;101017.63;5093115;28;20028;-69
2023/07/04 04:39:17;;;;;;;68.32;64.07;;;;;;;20.99;42.71;101019.53;5091770;28;20036;-68
2023/07/04 04:41:42;;;;;;;68.35;64.05;;;;;;;20.97;42.43;101022.59;5091669;28;20047;-69
2023/07/04 04:44:08;;;;;;;68.55;64.72;;;;;;;20.95;42.26;101017.41;5094562;28;20490;-69
2023/07/04 04:46:34;;;;;;;67.25;64.07;;;;;;;20.95;42.69;101027.56;5096620;28;20024;-69
2023/07/04 04:49:03;;;;;;;68.38;64.78;;;;;;;20.95;42.32;101033.06;5096906;28;20038;-69
2023/07/04 04:51:30;;;;;;;68.07;62.60;;;;;;;20.93;42.69;101029.81;5096514;28;20103;-69
2023/07/04 04:53:55;;;;;;;66.85;62.90;;;;;;;20.93;42.44;101032.56;5095554;28;20034;-69
2023/07/04 04:56:21;;;;;;;66.85;62.80;;;;;;;20.92;42.81;101030.94;5096970;28;20031;-69
2023/07/04 04:58:46;;;;;;;67.32;63.92;;;;;;;20.91;42.42;101034.78;5096426;28;20036;-68
2023/07/04 05:01:14;;;;;;;68.97;65.10;;;;;;;20.90;42.94;101033.16;5095058;28;20093;-68
2023/07/04 05:03:40;;;;;;;66.93;63.45;;;;;;;20.89;42.61;101031.53;5096630;28;20032;-68
2023/07/04 05:06:05;;;;;;;67.95;64.22;;;;;;;20.88;42.62;101036.22;5094790;28;20052;-68
2023/07/04 05:08:31;;;;;;;66.45;63.17;;;;;;;20.88;42.78;101029.91;5096222;28;20464;-69
2023/07/04 05:11:02;;;;;;;67.75;63.75;;;;;;;20.87;42.68;101031.03;5096306;28;20035;-69
2023/07/04 05:13:28;;;;;;;68.00;64.38;;;;;;;20.86;43.02;101034.88;5094928;28;20485;-70
2023/07/04 05:16:05;;;;;;;68.03;63.60;;;;;;;20.85;42.69;101041.50;5096111;28;20039;-70
2023/07/04 05:18:32;;;;;;;68.53;64.85;;;;;;;20.85;43.08;101044.25;5096874;28;20089;-69
2023/07/04 05:21:03;;;;;;;68.00;64.25;;;;;;;20.82;42.97;101042.94;5095668;28;20410;-70
2023/07/04 05:23:29;;;;;;;67.50;63.58;;;;;;;20.81;42.66;101046.78;5095904;28;20085;-69
2023/07/04 05:26:04;;;;;;;66.07;62.72;;;;;;;20.81;42.66;101037.72;5096533;28;20114;-69
2023/07/04 05:28:30;;;;;;;65.13;61.95;;;;;;;20.80;43.24;101036.94;5095852;28;20125;-69
2023/07/04 05:31:14;;;;;;;65.32;61.88;;;;;;;20.79;42.77;101032.56;5095527;28;20114;-69
2023/07/04 05:33:40;;;;;;;66.95;63.50;;;;;;;20.78;43.13;101043.84;5096421;28;20024;-70
2023/07/04 05:36:09;;;;;;;67.43;63.83;;;;;;;20.79;43.20;101048.19;5095779;28;20388;-69
2023/07/04 05:38:35;;;;;;;67.20;63.67;;;;;;;20.78;43.13;101043.84;5095919;28;20380;-68
2023/07/04 05:41:01;;;;;;;67.70;63.80;;;;;;;20.77;43.33;101047.72;5095635;28;20031;-69
2023/07/04 05:43:27;;;;;;;68.68;64.30;;;;;;;20.78;43.14;101049.34;5095863;28;20036;-68
2023/07/04 05:45:54;;;;;;;64.22;61.08;;;;;;;20.77;43.26;101047.72;5094406;28;20039;-68
2023/07/04 05:48:20;;;;;;;66.80;62.97;;;;;;;20.76;42.78;101052.38;5095336;28;20032;-69
2023/07/04 05:50:52;;;;;;;65.32;61.15;;;;;;;20.75;42.91;101048.81;5095511;28;20184;-69
2023/07/04 05:53:20;;;;;;;68.78;64.97;;;;;;;20.77;42.78;101053.22;5095745;28;20032;-69
2023/07/04 05:55:46;;;;;;;64.18;61.00;;;;;;;20.75;42.93;101048.81;5094773;28;20028;-69
2023/07/04 05:58:11;;;;;;;67.53;63.50;;;;;;;20.76;43.25;101055.13;5095323;28;20038;-69
2023/07/04 06:00:36;;;;;;;65.35;61.50;;;;;;;20.75;42.92;101051.56;5095213;28;20487;-69
2023/07/04 06:03:03;;;;;;;65.72;62.10;;;;;;;20.75;42.83;101051.56;5095509;28;20034;-70
2023/07/04 06:05:29;;;;;;;68.68;64.32;;;;;;;20.76;44.03;101057.84;5094786;28;20353;-76
2023/07/04 06:07:55;;;;;;;65.82;62.30;;;;;;;20.77;43.73;101055.94;5094402;28;20127;-70
2023/07/04 06:10:21;;;;;;;68.32;63.47;;;;;;;20.77;44.27;101065.00;5094862;28;20042;-69
2023/07/04 06:12:46;;;;;;;67.70;64.25;;;;;;;20.78;44.13;101060.31;5095732;28;20110;-70
2023/07/04 06:15:11;;;;;;;67.53;63.97;;;;;;;20.78;44.15;101065.81;5094899;28;20472;-69
2023/07/04 06:17:37;;;;;;;66.72;62.53;;;;;;;20.79;44.22;101072.91;5094585;28;20044;-70
2023/07/04 06:20:03;;;;;;;67.70;63.60;;;;;;;20.78;44.11;101071.28;5094677;28;20548;-72
2023/07/04 06:22:28;;;;;;;65.38;62.08;;;;;;;20.78;44.27;101072.09;5094659;28;20032;-68
2023/07/04 06:24:54;;;;;;;68.88;65.00;;;;;;;20.79;44.59;101070.16;5094674;28;20068;-69
2023/07/04 06:27:20;;;;;;;68.25;64.45;;;;;;;20.80;44.65;101071.81;5093762;28;20040;-68
2023/07/04 06:29:48;;;;;;;68.72;65.32;;;;;;;20.81;44.65;101079.72;5094202;28;20476;-67
2023/07/04 06:32:14;;;;;;;68.10;64.25;;;;;;;20.81;44.66;101076.97;5094707;28;20024;-68
2023/07/04 06:34:39;;;;;;;68.45;64.82;;;;;;;20.83;44.29;101084.91;5094584;28;20380;-68
2023/07/04 06:37:05;;;;;;;69.18;65.57;;;;;;;20.83;44.29;101082.19;5094887;28;20467;-68
2023/07/04 06:39:30;;;;;;;67.07;63.67;;;;;;;20.83;44.65;101088.47;5092808;28;20024;-68
2023/07/04 06:41:55;;;;;;;67.70;64.13;;;;;;;20.84;44.52;101092.03;5093818;28;20028;-68
2023/07/04 06:44:21;;;;;;;68.60;63.67;;;;;;;20.83;44.67;101076.69;5094235;28;20482;-67
2023/07/04 06:46:46;;;;;;;65.30;61.63;;;;;;;20.84;44.22;101086.53;5092965;28;20036;-68
2023/07/04 06:49:12;;;;;;;62.83;59.83;;;;;;;20.83;44.56;101091.22;5094592;28;20040;-70
2023/07/04 06:51:37;;;;;;;62.45;59.47;;;;;;;20.83;44.30;101088.47;5094091;28;20043;-69
2023/07/04 06:54:03;;;;;;;65.38;62.33;;;;;;;20.85;44.23;101093.69;5092873;28;20035;-69
2023/07/04 06:56:29;;;;;;;65.95;62.85;;;;;;;20.86;44.16;101098.03;5094052;28;20380;-69
2023/07/04 06:58:55;;;;;;;64.80;61.47;;;;;;;20.85;44.26;101083.50;5094058;28;20305;-69
2023/07/04 07:01:23;;;;;;;65.38;61.80;;;;;;;20.86;44.22;101092.53;5093640;28;20107;-69
2023/07/04 07:03:49;;;;;;;65.80;62.60;;;;;;;20.88;44.49;101093.06;5093932;28;20024;-69
2023/07/04 07:06:14;;;;;;;67.13;63.45;;;;;;;20.90;44.51;101099.06;5093486;28;20044;-69
2023/07/04 07:08:40;;;;;;;65.88;62.67;;;;;;;20.94;44.18;101094.59;5092845;28;20032;-69
2023/07/04 07:11:08;;;;;;;64.88;61.45;;;;;;;20.96;44.08;101097.84;5075680;28;20487;-69
2023/07/04 07:13:35;;;;;;;66.38;62.67;;;;;;;20.96;44.43;101098.69;5093751;28;20100;-70
2023/07/04 07:16:13;;;;;;;65.03;61.30;;;;;;;21.00;44.73;101111.78;5093685;28;20106;-69
2023/07/04 07:18:40;;;;;;;65.03;61.90;;;;;;;21.01;44.24;101119.72;5093632;28;20578;-69
2023/07/04 07:21:07;;;;;;;65.53;62.17;;;;;;;21.03;44.29;101122.16;5094138;28;20100;-69
2023/07/04 07:23:36;;;;;;;66.22;63.22;;;;;;;21.05;44.71;101123.50;5093473;28;20368;-69
2023/07/04 07:26:04;;;;;;;66.18;62.45;;;;;;;21.08;44.50;101113.84;5093527;28;20024;-69
2023/07/04 07:28:31;;;;;;;64.93;61.23;;;;;;;21.09;44.18;101102.56;5092389;28;20039;-69
2023/07/04 07:31:07;;;;;;;65.90;62.80;;;;;;;21.12;44.64;101103.88;5092769;28;20046;-69
2023/07/04 07:33:34;;;;;;;67.40;64.03;;;;;;;21.13;44.04;101108.22;5092238;28;20032;-69
2023/07/04 07:36:12;;;;;;;67.40;64.20;;;;;;;21.15;44.71;101103.25;5093858;28;20384;-69
2023/07/04 07:38:37;;;;;;;66.38;63.28;;;;;;;21.17;44.53;101114.75;5093354;28;20055;-68
2023/07/04 07:41:04;;;;;;;65.15;62.17;;;;;;;21.19;44.58;101118.00;5092471;28;20064;-68
2023/07/04 07:43:31;;;;;;;69.57;66.07;;;;;;;21.22;44.46;101119.31;5093442;28;20452;-68
2023/07/04 07:45:56;;;;;;;66.63;63.42;;;;;;;21.24;44.19;101133.56;5093550;28;20082;-68
2023/07/04 07:48:21;;;;;;;63.42;60.42;;;;;;;21.25;44.21;101130.53;5093703;28;20024;-69
2023/07/04 07:50:47;;;;;;;66.57;63.38;;;;;;;21.28;44.61;101131.84;5092135;28;20063;-68
2023/07/04 07:53:13;;;;;;;68.72;64.93;;;;;;;21.31;44.20;101136.72;5093215;28;20140;-68
2023/07/04 07:55:39;;;;;;;68.65;65.22;;;;;;;21.32;44.37;101141.13;5093367;28;20035;-68
2023/07/04 07:58:04;;;;;;;67.63;64.53;;;;;;;21.36;44.60;101144.88;5092589;28;20111;-68
2023/07/04 08:00:30;;;;;;;70.65;67.03;;;;;;;21.38;44.53;101151.72;5092570;28;20460;-68
2023/07/04 08:02:56;;;;;;;72.13;68.50;;;;;;;21.42;44.29;101146.44;5093315;28;20032;-69
2023/07/04 08:05:21;;;;;;;66.18;62.85;;;;;;;21.45;44.46;101154.06;5093096;28;20389;-69
2023/07/04 08:07:47;;;;;;;68.70;65.47;;;;;;;21.48;44.47;101145.19;5093324;28;20036;-69
2023/07/04 08:10:12;;;;;;;66.85;63.70;;;;;;;21.51;44.30;101132.78;5092078;28;20075;-69
2023/07/04 08:12:38;;;;;;;68.65;65.05;;;;;;;21.55;44.15;101140.09;5093124;28;20032;-70
2023/07/04 08:15:04;;;;;;;71.43;68.13;;;;;;;21.60;44.29;101136.44;5093304;28;20081;-72
2023/07/04 08:17:29;;;;;;;69.65;65.72;;;;;;;21.64;44.12;101140.19;5093690;28;20032;-70
2023/07/04 08:19:54;;;;;;;69.35;65.47;;;;;;;21.68;44.04;101151.41;5094971;28;20028;-69
2023/07/04 08:22:20;;;;;;;68.82;65.53;;;;;;;21.72;44.60;101149.66;5097180;28;20028;-69
2023/07/04 08:24:45;;;;;;;70.05;66.75;;;;;;;21.76;44.45;101132.22;5097066;28;20174;-70
2023/07/04 08:27:11;;;;;;;69.47;66.22;;;;;;;21.81;44.07;101123.06;5096708;28;20533;-69
2023/07/04 08:29:36;;;;;;;73.10;69.50;;;;;;;21.86;44.15;101125.69;5096916;28;20051;-69
2023/07/04 08:32:01;;;;;;;74.40;70.75;;;;;;;21.91;44.22;101109.06;5096058;28;20032;-68
2023/07/04 08:34:27;;;;;;;72.28;68.78;;;;;;;21.95;44.12;101120.28;5096743;28;20383;-76
2023/07/04 08:36:52;;;;;;;71.85;68.35;;;;;;;22.01;44.10;101124.53;5097323;28;20034;-71
2023/07/04 08:39:18;;;;;;;71.85;68.55;;;;;;;22.06;44.23;101123.59;5096794;28;20137;-69
2023/07/04 08:41:47;;;;;;;71.07;67.82;;;;;;;22.11;43.98;101126.22;5096937;28;20118;-69
2023/07/04 08:44:17;;;;;;;72.18;68.82;;;;;;;22.16;43.82;101132.41;5097071;28;20024;-71
2023/07/04 08:46:46;;;;;;;73.03;69.13;;;;;;;22.21;43.51;101129.56;5097227;28;20028;-69
2023/07/04 08:49:24;;;;;;;74.97;71.47;;;;;;;22.28;43.82;101131.91;5096885;28;20020;-70
2023/07/04 08:51:57;;;;;;;72.38;68.93;;;;;;;22.35;43.77;101142.47;5097204;28;20118;-72
2023/07/04 08:54:24;;;;;;;74.60;71.28;;;;;;;22.40;43.74;101145.94;5096917;28;20459;-69
2023/07/04 08:56:50;;;;;;;79.47;75.47;;;;;;;22.46;43.38;101147.41;5096743;28;20032;-69
2023/07/04 08:59:40;;;;;;;77.53;73.82;;;;;;;22.54;43.33;101150.53;5096512;28;20029;-70
2023/07/04 09:02:29;;;;;;;74.50;70.90;;;;;;;22.60;43.43;101157.53;5096506;28;20478;-73
2023/07/04 09:05:13;;;;;;;77.20;73.57;;;;;;;22.67;43.47;101163.41;5097208;28;20039;-70
2023/07/04 09:07:44;;;;;;;76.68;73.03;;;;;;;22.73;43.07;101164.94;5095022;28;20036;-70
2023/07/04 09:10:34;;;;;;;76.25;72.45;;;;;;;22.79;43.39;101163.66;5096595;28;20027;-70
2023/07/04 09:13:04;;;;;;;76.30;72.70;;;;;;;22.84;43.19;101166.28;5096283;28;20107;-68
2023/07/04 09:15:34;;;;;;;76.43;72.40;;;;;;;22.91;42.78;101171.34;5096601;28;20031;-69
2023/07/04 09:18:14;;;;;;;78.13;74.28;;;;;;;22.98;42.49;101165.41;5094693;28;20069;-70
2023/07/04 09:20:57;;;;;;;79.50;75.75;;;;;;;23.05;42.62;101172.09;5096348;28;20024;-70
2023/07/04 09:23:23;;;;;;;79.25;75.45;;;;;;;23.11;42.96;101187.38;5096141;28;20032;-70
2023/07/04 09:25:53;;;;;;;79.82;76.13;;;;;;;23.18;42.41;101175.88;5094500;28;20089;-70
2023/07/04 09:28:18;;;;;;;79.47;75.38;;;;;;;23.25;42.40;101178.97;5096484;28;20028;-67
2023/07/04 09:30:43;;;;;;;81.53;77.82;;;;;;;23.33;42.25;101182.91;5096111;28;20117;-72
2023/07/04 09:33:10;;;;;;;82.80;79.20;;;;;;;23.39;42.25;101186.34;5096202;28;20106;-69
2023/07/04 09:35:36;;;;;;;80.60;76.85;;;;;;;23.47;42.58;101205.69;5095797;28;20032;-70
2023/07/04 09:38:03;;;;;;;83.95;79.78;;;;;;;23.54;42.07;101197.75;5095734;28;20122;-70
2023/07/04 09:40:48;;;;;;;81.32;77.55;;;;;;;23.61;42.36;101180.75;5095718;28;20084;-71
2023/07/04 09:43:27;;;;;;;84.38;80.13;;;;;;;23.67;42.41;101179.47;5096099;28;20056;-69
2023/07/04 09:46:21;;;;;;;85.25;81.30;;;;;;;23.75;42.11;101180.66;5095964;28;20516;-69
2023/07/04 09:48:46;;;;;;;88.20;84.20;;;;;;;23.83;41.64;101179.03;5095545;28;20094;-69
2023/07/04 09:51:18;;;;;;;85.90;81.80;;;;;;;23.90;41.39;101187.66;5095393;28;20535;-70
2023/07/04 09:53:43;;;;;;;86.00;82.10;;;;;;;23.97;41.51;101179.72;5095840;28;20036;-70
2023/07/04 09:56:09;;;;;;;84.93;80.97;;;;;;;24.02;41.60;101179.56;5094969;28;20036;-70
2023/07/04 09:58:36;;;;;;;85.63;81.63;;;;;;;24.09;41.37;101184.56;5095275;28;20028;-80
2023/07/04 10:01:18;;;;;;;86.70;82.60;;;;;;;24.16;41.42;101182.97;5095502;28;20081;-72
2023/07/04 10:03:45;;;;;;;88.93;84.65;;;;;;;24.24;41.51;101183.28;5095589;28;20052;-70
2023/07/04 10:06:11;;;;;;;89.85;85.03;;;;;;;24.29;41.33;101177.59;5094636;28;20048;-70
2023/07/04 10:08:54;;;;;;;85.95;82.10;;;;;;;24.35;40.88;101182.66;5093709;28;20032;-80
2023/07/04 10:11:32;;;;;;;87.03;82.88;;;;;;;24.41;40.85;101178.56;5094845;28;20047;-70
2023/07/04 10:14:04;;;;;;;86.95;83.10;;;;;;;24.49;40.91;101184.44;5095190;28;20032;-70
2023/07/04 10:16:29;;;;;;;90.45;86.47;;;;;;;24.54;41.07;101185.09;5094921;28;20039;-70
2023/07/04 10:19:09;;;;;;;89.10;85.10;;;;;;;24.62;40.46;101183.47;5095142;28;20032;-69
2023/07/04 10:21:42;;;;;;;90.28;86.28;;;;;;;24.69;40.60;101185.72;5095422;28;20028;-71
2023/07/04 10:24:13;;;;;;;89.47;85.07;;;;;;;24.74;40.64;101186.34;5095361;28;20478;-72
2023/07/04 10:26:39;;;;;;;96.28;91.97;;;;;;;24.82;40.03;101181.94;5095377;28;20039;-74
2023/07/04 10:29:05;;;;;;;91.25;87.05;;;;;;;24.89;39.83;101185.03;5093630;28;20035;-71
2023/07/04 10:31:30;;;;;;;93.93;89.78;;;;;;;24.96;39.84;101188.09;5094782;28;20043;-72
2023/07/04 10:34:01;;;;;;;94.43;90.32;;;;;;;25.03;40.45;101193.94;5094550;28;20365;-71
2023/07/04 10:36:31;;;;;;;92.80;88.57;;;;;;;25.12;39.77;101184.81;5094743;28;20045;-71
2023/07/04 10:39:00;;;;;;;92.13;88.03;;;;;;;25.18;39.57;101189.06;5095316;28;20363;-71
2023/07/04 10:41:56;;;;;;;93.13;88.80;;;;;;;25.26;39.82;101189.00;5093536;28;20364;-71
2023/07/04 10:44:26;;;;;;;91.50;87.43;;;;;;;25.32;39.57;101195.16;5095281;28;20024;-71
2023/07/04 10:46:56;;;;;;;99.53;95.10;;;;;;;25.40;39.31;101187.97;5093929;28;20349;-71
2023/07/04 10:49:26;;;;;;;95.15;91.00;;;;;;;25.46;39.15;101193.00;5093707;28;20043;-71
2023/07/04 10:52:19;;;;;;;97.40;92.57;;;;;;;25.55;39.38;101195.72;5094303;28;20460;-72
2023/07/04 10:54:45;;;;;;;99.97;95.22;;;;;;;25.62;39.37;101184.94;5089160;28;20044;-71
2023/07/04 10:57:37;;;;;;;96.30;91.78;;;;;;;25.69;39.18;101179.69;5094266;28;20034;-74
2023/07/04 11:00:22;;;;;;;99.90;95.30;;;;;;;25.77;38.89;101182.72;5094627;28;20032;-70
2023/07/04 11:03:32;;;;;;;99.88;94.63;;;;;;;25.84;39.01;101186.59;5093084;28;20120;-70
2023/07/04 11:06:00;;;;;;;98.38;93.78;;;;;;;25.92;38.71;101178.59;5083372;28;20048;-72
2023/07/04 11:08:29;;;;;;;100.15;95.43;;;;;;;25.98;38.56;101183.63;5093967;28;20118;-72
2023/07/04 11:11:08;;;;;;;106.93;102.15;;;;;;;26.04;38.09;101179.47;5094216;28;20107;-72
2023/07/04 11:13:39;;;;;;;100.53;96.03;;;;;;;26.11;38.38;101177.00;5094287;28;20035;-72
2023/07/04 11:16:07;;;;;;;103.65;98.75;;;;;;;26.19;38.21;101182.81;5075758;28;20471;-72